createdAt,value
2017-06-17T00:01:18.067Z,70.90
2017-06-17T00:03:47.744Z,71.80
2017-06-17T00:06:17.442Z,72.00
2017-06-17T00:08:47.448Z,71.90
2017-06-17T00:11:18.283Z,71.80
2017-06-17T00:13:47.961Z,71.80
2017-06-17T00:16:17.626Z,73.00
2017-06-17T00:18:47.295Z,73.00
2017-06-17T00:21:17.317Z,72.90
2017-06-17T00:23:47.072Z,72.90
2017-06-17T00:26:16.961Z,72.90
2017-06-17T00:28:47.117Z,72.90
2017-06-17T00:31:16.849Z,72.80
2017-06-17T00:33:46.566Z,72.90
2017-06-17T00:36:16.481Z,73.20
2017-06-17T00:38:46.433Z,73.10
2017-06-17T00:41:16.132Z,73.40
2017-06-17T00:43:47.068Z,73.10
2017-06-17T00:46:17.562Z,73.70
2017-06-17T00:48:47.225Z,74.40
2017-06-17T00:51:18.215Z,74.40
2017-06-17T00:53:47.918Z,74.90
2017-06-17T00:56:17.585Z,74.20
2017-06-17T00:58:48.310Z,74.70
2017-06-17T01:01:17.981Z,75.40
2017-06-17T01:03:48.425Z,75.20
2017-06-17T01:06:18.107Z,75.80
2017-06-17T01:08:48.150Z,76.60
2017-06-17T01:11:17.846Z,75.10
2017-06-17T01:13:47.538Z,75.50
2017-06-17T01:16:17.598Z,75.10
2017-06-17T01:18:47.465Z,75.40
2017-06-17T01:21:17.180Z,75.40
2017-06-17T01:23:46.857Z,75.20
2017-06-17T01:26:16.855Z,76.20
2017-06-17T01:28:47.875Z,76.00
2017-06-17T01:31:18.217Z,75.90
2017-06-17T01:33:47.902Z,76.30
2017-06-17T01:36:17.731Z,75.70
2017-06-17T01:38:48.062Z,75.50
2017-06-17T01:41:18.010Z,76.30
2017-06-17T01:43:48.057Z,76.50
2017-06-17T01:46:18.001Z,76.80
2017-06-17T01:48:47.918Z,77.40
2017-06-17T01:51:17.683Z,77.60
2017-06-17T01:53:47.467Z,77.70
2017-06-17T01:56:17.310Z,77.80
2017-06-17T01:58:46.974Z,78.20
2017-06-17T02:01:16.706Z,78.00
2017-06-17T02:03:46.407Z,77.50
2017-06-17T02:06:16.117Z,77.20
2017-06-17T02:08:45.817Z,76.90
2017-06-17T02:11:15.509Z,76.60
2017-06-17T02:13:45.217Z,76.30
2017-06-17T02:16:14.882Z,75.50
2017-06-17T02:18:44.558Z,75.30
2017-06-17T02:21:18.342Z,75.00
2017-06-17T02:23:48.050Z,74.60
2017-06-17T02:26:17.706Z,74.60
2017-06-17T02:28:47.442Z,74.10
2017-06-17T02:31:18.389Z,74.20
2017-06-17T02:33:48.104Z,74.20
2017-06-17T02:36:17.854Z,74.30
2017-06-17T02:38:47.614Z,72.70
2017-06-17T02:41:17.509Z,73.70
2017-06-17T02:43:47.226Z,73.60
2017-06-17T02:46:16.973Z,73.90
2017-06-17T02:48:46.678Z,74.40
2017-06-17T02:51:16.461Z,73.60
2017-06-17T02:53:46.214Z,73.80
2017-06-17T02:56:15.935Z,73.90
2017-06-17T02:58:45.623Z,74.30
2017-06-17T03:01:15.344Z,74.30
2017-06-17T03:03:45.110Z,74.40
2017-06-17T03:06:14.822Z,74.50
2017-06-17T03:08:44.606Z,74.50
2017-06-17T03:11:14.570Z,74.60
2017-06-17T03:13:44.401Z,74.60
2017-06-17T03:16:14.125Z,73.90
2017-06-17T03:18:43.842Z,73.50
2017-06-17T03:21:13.619Z,72.70
2017-06-17T03:23:43.338Z,72.00
2017-06-17T03:26:13.097Z,71.80
2017-06-17T03:28:43.569Z,71.90
2017-06-17T03:31:13.330Z,71.60
2017-06-17T03:33:43.229Z,70.10
2017-06-17T03:36:13.077Z,69.70
2017-06-17T03:38:42.778Z,69.70
2017-06-17T03:41:12.441Z,70.00
2017-06-17T03:43:42.130Z,69.50
2017-06-17T03:46:11.837Z,68.50
2017-06-17T03:48:41.541Z,68.60
2017-06-17T03:51:11.249Z,68.50
2017-06-17T03:53:40.917Z,68.10
2017-06-17T03:56:10.586Z,67.60
2017-06-17T03:58:40.258Z,67.60
2017-06-17T04:01:09.942Z,67.20
2017-06-17T04:03:39.609Z,66.80
2017-06-17T04:06:09.310Z,66.80
2017-06-17T04:08:38.994Z,65.50
2017-06-17T04:11:08.704Z,65.50
2017-06-17T04:13:38.421Z,65.50
2017-06-17T04:16:08.142Z,65.60
2017-06-17T04:18:37.797Z,65.70
2017-06-17T04:21:07.514Z,65.70
2017-06-17T04:23:37.252Z,65.60
2017-06-17T04:26:06.925Z,65.70
2017-06-17T04:28:36.700Z,65.60
2017-06-17T04:31:06.366Z,65.70
2017-06-17T04:33:36.037Z,65.70
2017-06-17T04:36:05.737Z,65.80
2017-06-17T04:38:35.418Z,65.00
2017-06-17T04:41:05.769Z,64.60
2017-06-17T04:43:37.516Z,63.90
2017-06-17T04:46:09.230Z,63.10
2017-06-17T04:48:38.958Z,63.50
2017-06-17T04:51:08.690Z,63.90
2017-06-17T04:53:39.659Z,64.20
2017-06-17T04:56:09.569Z,64.90
2017-06-17T04:58:40.899Z,64.40
2017-06-17T05:01:11.851Z,64.20
2017-06-17T05:03:42.519Z,64.50
2017-06-17T05:06:13.961Z,64.30
2017-06-17T05:08:45.073Z,65.00
2017-06-17T05:11:15.173Z,64.30
2017-06-17T05:13:45.162Z,63.50
2017-06-17T05:16:21.065Z,63.40
2017-06-17T05:18:50.804Z,63.50
2017-06-17T05:21:22.242Z,63.90
2017-06-17T05:23:53.207Z,64.30
2017-06-17T05:26:27.355Z,63.70
2017-06-17T05:28:58.541Z,63.90
2017-06-17T05:31:28.764Z,63.90
2017-06-17T05:34:00.641Z,64.40
2017-06-17T05:36:30.918Z,64.60
2017-06-17T05:39:03.654Z,64.80
2017-06-17T05:41:37.307Z,65.30
2017-06-17T05:44:09.800Z,65.10
2017-06-17T05:46:42.851Z,65.10
2017-06-17T05:49:15.094Z,64.60
2017-06-17T05:51:44.965Z,64.60
2017-06-17T05:54:16.830Z,65.20
2017-06-17T05:56:47.457Z,64.90
2017-06-17T05:59:17.402Z,64.50
2017-06-17T06:01:48.628Z,64.90
2017-06-17T06:04:18.950Z,65.10
2017-06-17T06:06:51.191Z,65.30
2017-06-17T06:09:21.043Z,66.70
2017-06-17T06:11:51.451Z,66.70
2017-06-17T06:14:21.439Z,67.80
2017-06-17T06:16:51.110Z,68.00
2017-06-17T06:19:20.777Z,68.20
2017-06-17T06:21:50.857Z,69.10
2017-06-17T06:24:21.438Z,68.70
2017-06-17T06:26:51.841Z,69.00
2017-06-17T06:29:21.534Z,68.60
2017-06-17T06:31:51.263Z,67.60
2017-06-17T06:34:21.350Z,67.60
2017-06-17T06:36:51.741Z,67.20
2017-06-17T06:39:21.446Z,67.30
2017-06-17T06:41:51.830Z,67.30
2017-06-17T06:44:22.485Z,67.80
2017-06-17T06:46:52.784Z,67.80
2017-06-17T06:49:22.582Z,68.60
2017-06-17T06:51:52.719Z,68.20
2017-06-17T06:54:22.704Z,67.60
2017-06-17T06:56:52.509Z,67.60
2017-06-17T06:59:22.304Z,68.20
2017-06-17T07:01:52.918Z,68.80
2017-06-17T07:04:22.611Z,70.10
2017-06-17T07:06:52.313Z,70.30
2017-06-17T07:09:22.006Z,69.90
2017-06-17T07:11:51.789Z,70.60
2017-06-17T07:14:21.534Z,70.70
2017-06-17T07:16:51.215Z,71.40
2017-06-17T07:19:20.902Z,71.60
2017-06-17T07:21:50.642Z,70.20
2017-06-17T07:24:20.333Z,70.80
2017-06-17T07:26:50.086Z,70.30
2017-06-17T07:29:19.842Z,69.80
2017-06-17T07:31:49.578Z,70.10
2017-06-17T07:34:19.286Z,69.60
2017-06-17T07:36:54.191Z,68.20
2017-06-17T07:39:24.805Z,66.30
2017-06-17T07:41:54.621Z,66.40
2017-06-17T07:44:24.362Z,68.00
2017-06-17T07:46:54.053Z,68.00
2017-06-17T07:49:23.954Z,68.10
2017-06-17T07:51:53.669Z,67.70
2017-06-17T07:54:23.351Z,68.20
2017-06-17T07:56:53.019Z,68.40
2017-06-17T07:59:22.710Z,67.10
2017-06-17T08:01:52.622Z,67.30
2017-06-17T08:04:22.317Z,68.40
2017-06-17T08:06:52.003Z,67.40
2017-06-17T08:09:21.774Z,67.40
2017-06-17T08:11:51.562Z,67.90
2017-06-17T08:14:21.301Z,68.10
2017-06-17T08:16:51.018Z,68.50
2017-06-17T08:19:20.699Z,67.20
2017-06-17T08:21:50.369Z,66.80
2017-06-17T08:24:20.333Z,66.80
2017-06-17T08:26:50.053Z,65.30
2017-06-17T08:29:19.819Z,65.40
2017-06-17T08:31:49.489Z,65.70
2017-06-17T08:34:19.195Z,65.50
2017-06-17T08:36:49.066Z,65.10
2017-06-17T08:39:18.846Z,63.00
2017-06-17T08:41:48.521Z,61.80
2017-06-17T08:44:18.261Z,59.90
2017-06-17T08:46:47.958Z,60.20
2017-06-17T08:49:17.631Z,59.10
2017-06-17T08:51:48.489Z,58.70
2017-06-17T08:54:18.229Z,59.30
2017-06-17T08:56:48.022Z,59.80
2017-06-17T08:59:17.815Z,61.70
2017-06-17T09:01:48.107Z,60.20
2017-06-17T09:04:18.222Z,59.80
2017-06-17T09:06:47.886Z,60.60
2017-06-17T09:09:18.050Z,61.40
2017-06-17T09:11:48.302Z,60.90
2017-06-17T09:14:18.037Z,61.50
2017-06-17T09:16:47.802Z,59.80
2017-06-17T09:19:17.475Z,60.50
2017-06-17T09:21:47.543Z,61.20
2017-06-17T09:24:17.214Z,61.60
2017-06-17T09:26:47.454Z,61.20
2017-06-17T09:29:17.195Z,61.00
2017-06-17T09:31:47.962Z,60.20
2017-06-17T09:34:17.734Z,60.30
2017-06-17T09:36:47.686Z,58.50
2017-06-17T09:39:17.782Z,57.70
2017-06-17T09:41:48.453Z,58.60
2017-06-17T09:44:20.219Z,55.60
2017-06-17T09:46:50.676Z,56.30
2017-06-17T09:49:20.434Z,57.70
2017-06-17T09:51:51.045Z,57.20
2017-06-17T09:54:20.853Z,57.20
2017-06-17T09:56:50.872Z,57.50
2017-06-17T09:59:20.545Z,56.50
2017-06-17T10:01:50.242Z,55.70
2017-06-17T10:04:19.923Z,55.80
2017-06-17T10:06:49.593Z,56.20
2017-06-17T10:09:19.257Z,56.00
2017-06-17T10:11:49.330Z,56.10
2017-06-17T10:14:19.006Z,56.60
2017-06-17T10:16:48.678Z,56.30
2017-06-17T10:19:18.357Z,55.20
2017-06-17T10:21:48.302Z,52.50
2017-06-17T10:24:17.970Z,51.60
2017-06-17T10:26:48.031Z,51.80
2017-06-17T10:29:17.702Z,51.20
2017-06-17T10:31:47.382Z,51.20
2017-06-17T10:34:17.062Z,50.40
2017-06-17T10:36:47.230Z,49.40
2017-06-17T10:39:16.914Z,51.50
2017-06-17T11:26:46.382Z,51.20
2017-06-17T11:29:16.034Z,52.10
2017-06-17T11:31:46.280Z,52.70
2017-06-17T11:34:16.034Z,52.20
2017-06-17T11:36:46.212Z,52.40
2017-06-17T11:39:15.858Z,52.20
2017-06-17T11:41:45.857Z,53.40
2017-06-17T11:44:15.486Z,52.30
2017-06-17T11:46:46.092Z,52.30
2017-06-17T11:49:16.381Z,53.10
2017-06-17T11:51:46.361Z,53.90
2017-06-17T11:54:20.372Z,53.70
2017-06-17T11:56:50.492Z,52.40
2017-06-17T11:59:20.268Z,53.00
2017-06-17T12:01:50.072Z,52.90
2017-06-17T12:04:20.081Z,53.20
2017-06-17T12:06:49.857Z,53.60
2017-06-17T12:09:19.505Z,52.60
2017-06-17T12:11:49.277Z,52.40
2017-06-17T12:14:18.912Z,52.90
2017-06-17T12:16:48.721Z,52.40
2017-06-17T12:19:18.385Z,52.60
2017-06-17T12:21:48.167Z,51.70
2017-06-17T12:24:17.808Z,52.30
2017-06-17T12:26:48.203Z,52.20
2017-06-17T12:29:18.149Z,52.10
2017-06-17T12:31:48.848Z,52.40
2017-06-17T12:34:19.196Z,52.40
2017-06-17T12:36:50.273Z,52.50
2017-06-17T12:39:20.117Z,52.40
2017-06-17T12:41:49.930Z,52.50
2017-06-17T12:44:20.493Z,52.50
2017-06-17T12:46:51.925Z,52.30
2017-06-17T12:49:21.566Z,51.50
2017-06-17T12:51:51.556Z,51.20
2017-06-17T12:54:21.653Z,51.40
2017-06-17T12:56:52.851Z,50.80
2017-06-17T12:59:22.522Z,52.30
2017-06-17T13:01:52.436Z,52.10
2017-06-17T13:04:22.870Z,51.60
2017-06-17T13:06:53.510Z,51.10
2017-06-17T13:09:23.155Z,51.20
2017-06-17T13:11:52.998Z,50.60
2017-06-17T13:14:23.161Z,50.10
2017-06-17T13:16:53.078Z,50.30
2017-06-17T13:19:22.742Z,50.00
2017-06-17T13:21:52.564Z,51.30
2017-06-17T13:24:22.688Z,51.40
2017-06-17T13:26:52.465Z,50.90
2017-06-17T13:29:22.102Z,48.60
2017-06-17T13:31:52.842Z,48.10
2017-06-17T13:34:23.992Z,45.90
2017-06-17T13:36:54.086Z,45.30
2017-06-17T13:39:23.892Z,47.20
2017-06-17T13:41:54.293Z,46.60
2017-06-17T13:44:24.469Z,47.40
2017-06-17T13:46:54.487Z,46.20
2017-06-17T13:49:24.408Z,44.20
2017-06-17T13:51:54.201Z,44.10
2017-06-17T13:54:24.721Z,42.90
2017-06-17T13:56:55.493Z,42.20
2017-06-17T13:59:25.289Z,40.00
2017-06-17T14:01:55.089Z,38.30
2017-06-17T14:04:25.254Z,37.70
2017-06-17T14:06:55.261Z,37.80
2017-06-17T14:09:26.173Z,36.50
2017-06-17T14:11:55.977Z,36.40
2017-06-17T14:14:28.248Z,36.50
2017-06-17T14:16:59.014Z,36.50
2017-06-17T14:19:30.137Z,36.50
2017-06-17T14:22:04.386Z,37.10
2017-06-17T14:24:34.678Z,37.00
2017-06-17T14:27:04.964Z,37.10
2017-06-17T14:29:34.829Z,37.90
2017-06-17T14:32:05.349Z,39.60
2017-06-17T14:34:35.355Z,40.30
2017-06-17T14:37:05.402Z,41.00
2017-06-17T14:39:35.494Z,41.90
2017-06-17T14:42:05.368Z,41.90
2017-06-17T14:44:35.277Z,43.30
2017-06-17T14:47:05.541Z,44.00
2017-06-17T14:49:35.272Z,43.50
2017-06-17T14:52:05.225Z,42.00
2017-06-17T14:54:35.281Z,41.50
2017-06-17T14:57:05.261Z,41.60
2017-06-17T14:59:35.306Z,41.00
2017-06-17T15:02:05.086Z,41.20
2017-06-17T15:04:35.059Z,41.80
2017-06-17T15:07:05.706Z,44.60
2017-06-17T15:09:38.387Z,43.80
2017-06-17T15:12:08.129Z,44.00
2017-06-17T15:14:39.833Z,43.50
2017-06-17T15:17:10.211Z,44.40
2017-06-17T15:19:42.131Z,44.90
2017-06-17T15:22:11.989Z,44.60
2017-06-17T15:24:41.949Z,43.80
2017-06-17T15:27:11.745Z,42.70
2017-06-17T15:29:42.429Z,44.30
2017-06-17T15:32:12.436Z,43.60
2017-06-17T15:34:42.224Z,43.20
2017-06-17T15:37:13.158Z,44.20
2017-06-17T15:39:43.246Z,44.20
2017-06-17T15:42:12.911Z,45.00
2017-06-17T15:44:42.914Z,45.50
2017-06-17T15:47:14.648Z,44.70
2017-06-17T15:49:44.442Z,43.20
2017-06-17T15:52:14.109Z,43.20
2017-06-17T15:54:44.716Z,45.90
2017-06-17T15:57:14.848Z,46.30
2017-06-17T15:59:45.664Z,47.90
2017-06-17T16:02:15.798Z,47.40
2017-06-17T16:04:45.890Z,47.40
2017-06-17T16:07:15.553Z,47.20
2017-06-17T16:09:46.393Z,46.70
2017-06-17T16:12:16.062Z,46.60
2017-06-17T16:14:45.867Z,45.80
2017-06-17T16:17:15.769Z,46.20
2017-06-17T16:19:46.029Z,47.30
2017-06-17T16:22:15.453Z,48.60
2017-06-17T16:24:45.603Z,49.90
2017-06-17T16:27:14.939Z,51.40
2017-06-17T16:29:44.903Z,52.30
2017-06-17T16:32:15.707Z,53.50
2017-06-17T16:34:45.495Z,53.90
2017-06-17T16:37:14.887Z,53.80
2017-06-17T16:39:44.499Z,53.70
2017-06-17T16:42:15.022Z,53.70
2017-06-17T16:44:44.944Z,53.70
2017-06-17T16:47:14.983Z,53.80
2017-06-17T16:49:44.769Z,53.90
2017-06-17T16:52:14.444Z,53.70
2017-06-17T16:54:45.290Z,53.90
2017-06-17T16:57:15.483Z,53.70
2017-06-17T16:59:45.369Z,53.60
2017-06-17T17:02:15.027Z,53.70
2017-06-17T17:04:45.133Z,53.80
2017-06-17T17:07:16.162Z,54.10
2017-06-17T17:09:46.142Z,53.90
2017-06-17T17:12:15.797Z,54.40
2017-06-17T17:14:45.627Z,54.50
2017-06-17T17:17:15.989Z,54.30
2017-06-17T17:19:46.438Z,54.90
2017-06-17T17:22:16.878Z,54.60
2017-06-17T17:24:48.405Z,54.50
2017-06-17T17:27:20.199Z,54.00
2017-06-17T17:29:50.399Z,53.70
2017-06-17T17:32:21.195Z,54.10
2017-06-17T17:34:51.599Z,54.10
2017-06-17T17:37:22.173Z,53.50
2017-06-17T17:39:51.999Z,53.40
2017-06-17T17:42:21.969Z,54.10
2017-06-17T17:44:51.815Z,54.50
2017-06-17T17:47:22.033Z,54.80
2017-06-17T17:49:52.258Z,55.00
2017-06-17T17:52:21.938Z,55.00
2017-06-17T17:54:52.601Z,55.50
2017-06-17T17:57:22.539Z,55.90
2017-06-17T17:59:53.336Z,55.80
2017-06-17T18:02:23.443Z,55.70
2017-06-17T18:04:54.718Z,55.20
2017-06-17T18:07:24.903Z,55.50
2017-06-17T18:09:54.862Z,55.50
2017-06-17T18:12:26.242Z,55.10
2017-06-17T18:14:56.074Z,55.10
2017-06-17T18:17:25.761Z,54.80
2017-06-17T18:19:55.823Z,54.90
2017-06-17T18:22:25.494Z,54.60
2017-06-17T18:24:55.303Z,54.90
2017-06-17T18:27:25.405Z,54.70
2017-06-17T18:29:55.982Z,55.00
2017-06-17T18:32:25.663Z,55.10
2017-06-17T18:34:56.047Z,55.00
2017-06-17T18:37:27.750Z,55.50
2017-06-17T18:39:57.961Z,55.50
2017-06-17T18:42:27.961Z,55.60
2017-06-17T18:44:58.973Z,56.20
2017-06-17T18:47:28.821Z,56.50
2017-06-17T18:49:58.619Z,56.50
2017-06-17T18:52:28.306Z,56.60
2017-06-17T18:54:58.308Z,56.30
2017-06-17T18:57:28.372Z,56.40
2017-06-17T19:00:00.271Z,56.70
2017-06-17T19:02:30.157Z,56.60
2017-06-17T19:05:00.539Z,56.70
2017-06-17T19:07:30.922Z,56.90
2017-06-17T19:10:00.803Z,57.00
2017-06-17T19:12:31.536Z,57.50
2017-06-17T19:15:02.262Z,57.20
2017-06-17T19:17:31.928Z,57.20
2017-06-17T19:20:02.735Z,57.40
2017-06-17T19:22:32.426Z,57.70
2017-06-17T19:25:02.327Z,58.00
2017-06-17T19:27:32.078Z,58.00
2017-06-17T19:30:02.147Z,58.20
2017-06-17T19:32:32.001Z,58.50
2017-06-17T19:35:02.190Z,58.60
2017-06-17T19:37:31.903Z,58.70
2017-06-17T19:40:01.881Z,58.60
2017-06-17T19:42:31.549Z,58.70
2017-06-17T19:45:01.722Z,58.50
2017-06-17T19:47:31.381Z,58.80
2017-06-17T19:50:01.982Z,59.40
2017-06-17T19:52:31.632Z,59.90
2017-06-17T19:55:01.761Z,60.10
2017-06-17T19:57:31.393Z,60.00
2017-06-17T20:00:01.997Z,61.00
2017-06-17T20:02:31.975Z,61.30
2017-06-17T20:05:01.766Z,61.70
2017-06-17T20:07:31.413Z,61.60
2017-06-17T20:10:03.437Z,61.60
2017-06-17T20:12:33.109Z,61.50
2017-06-17T20:15:03.242Z,62.30
2017-06-17T20:17:32.933Z,62.60
2017-06-17T20:20:05.499Z,62.50
2017-06-17T20:22:40.434Z,63.60
2017-06-17T20:25:10.399Z,63.60
2017-06-17T20:27:40.053Z,63.90
2017-06-17T20:30:09.869Z,63.90
2017-06-17T20:32:39.510Z,63.90
2017-06-17T20:35:10.062Z,63.90
2017-06-17T20:37:39.718Z,64.20
2017-06-17T20:40:09.691Z,64.40
2017-06-17T20:42:39.342Z,65.10
2017-06-17T20:45:10.360Z,64.90
2017-06-17T20:47:40.057Z,65.30
2017-06-17T20:50:11.516Z,65.20
2017-06-17T20:52:42.349Z,65.40
2017-06-17T20:55:12.241Z,66.20
2017-06-17T20:57:42.161Z,64.90
2017-06-17T21:00:13.750Z,65.30
2017-06-17T21:02:43.988Z,65.50
2017-06-17T21:05:14.561Z,65.30
2017-06-17T21:07:44.523Z,65.70
2017-06-17T21:10:15.430Z,65.80
2017-06-17T21:12:46.622Z,65.70
2017-06-17T21:15:16.679Z,65.40
2017-06-17T21:17:47.790Z,65.40
2017-06-17T21:20:18.471Z,65.40
2017-06-17T21:22:48.204Z,66.70
2017-06-17T21:25:19.600Z,67.20
2017-06-17T21:27:50.942Z,66.40
2017-06-17T21:30:21.961Z,66.80
2017-06-17T21:32:51.959Z,66.70
2017-06-17T21:35:23.086Z,67.00
2017-06-17T21:37:52.949Z,67.00
2017-06-17T21:40:23.341Z,67.60
2017-06-17T21:42:53.808Z,67.10
2017-06-17T21:45:24.067Z,67.60
2017-06-17T21:47:55.045Z,67.10
2017-06-17T21:50:25.395Z,66.90
2017-06-17T21:52:56.600Z,66.60
2017-06-17T21:55:26.394Z,67.10
2017-06-17T21:57:56.486Z,67.30
2017-06-17T22:00:26.794Z,67.50
2017-06-17T22:02:57.306Z,67.50
2017-06-17T22:05:27.163Z,67.40
2017-06-17T22:07:57.661Z,67.40
2017-06-17T22:10:27.525Z,67.60
2017-06-17T22:12:57.365Z,67.50
2017-06-17T22:15:27.559Z,68.00
2017-06-17T22:17:57.493Z,67.70
2017-06-17T22:20:28.327Z,67.50
2017-06-17T22:22:58.357Z,67.90
2017-06-17T22:25:28.313Z,68.10
2017-06-17T22:27:58.645Z,68.00
2017-06-17T22:30:28.718Z,68.50
2017-06-17T22:32:58.369Z,67.80
2017-06-17T22:35:28.295Z,67.50
2017-06-17T22:37:58.237Z,67.50
2017-06-17T22:40:27.982Z,67.70
2017-06-17T22:42:57.947Z,68.10
2017-06-17T22:45:27.866Z,68.00
2017-06-17T22:47:57.864Z,68.20
2017-06-17T22:50:27.677Z,69.10
2017-06-17T22:52:57.308Z,69.50
2017-06-17T22:55:27.102Z,70.10
2017-06-17T22:57:57.094Z,70.90
2017-06-17T23:00:26.941Z,70.20
2017-06-17T23:02:56.845Z,70.90
2017-06-17T23:05:26.533Z,70.80
2017-06-17T23:07:56.681Z,70.90
2017-06-17T23:10:26.393Z,70.90
2017-06-17T23:12:56.203Z,70.90
2017-06-17T23:15:26.219Z,70.80
2017-06-17T23:17:55.856Z,70.80
2017-06-17T23:20:25.847Z,70.80
2017-06-17T23:23:15.446Z,70.30
2017-06-17T23:25:45.242Z,69.80
2017-06-17T23:28:14.881Z,69.70
2017-06-17T23:30:45.114Z,69.50
2017-06-17T23:33:14.945Z,70.30
2017-06-17T23:35:44.973Z,70.80
2017-06-17T23:38:14.695Z,70.80
2017-06-17T23:40:44.370Z,70.40
2017-06-17T23:43:14.325Z,70.80
2017-06-17T23:45:44.753Z,70.80
2017-06-17T23:48:14.557Z,70.70
2017-06-17T23:50:44.395Z,71.90
2017-06-17T23:53:14.197Z,71.40
2017-06-17T23:55:45.206Z,71.20
2017-06-17T23:58:14.908Z,71.10
